Time;durP1;ratioP1;P1;durP2;ratioP2;P2;SDS_P1;SDS_P2;PMS_P1;PMS_P2;Temp;Humidity;BMP_temperature;BMP_pressure;BME280_temperature;BME280_humidity;BME280_pressure;Samples;Min_cycle;Max_cycle;Signal;HPM_P1;HPM_P2
2021/07/27 00:02:17;;;;;;;;;;;;;;;21.58;73.91;97767.50;1618247;87;22020;-88
2021/07/27 00:04:43;;;;;;;;;;;;;;;21.60;74.06;97764.94;1625534;87;25970;-88
2021/07/27 00:07:09;;;;;;;;;;;;;;;21.56;74.18;97763.69;1638523;86;20639;-88
2021/07/27 00:09:40;;;;;;;;;;;;;;;21.49;74.27;97749.48;1596413;89;20318;-87
2021/07/27 00:12:06;;;;;;;;;;;;;;;21.45;74.39;97755.39;1600897;87;24838;-87
2021/07/27 00:14:33;;;;;;;;;;;;;;;21.44;74.52;97749.78;1617528;88;22079;-87
2021/07/27 00:16:59;;;;;;;;;;;;;;;21.51;74.67;97760.78;1618844;88;26000;-87
2021/07/27 00:19:24;;;;;;;;;;;;;;;21.62;74.83;97774.08;1627044;87;20233;-87
2021/07/27 00:21:50;;;;;;;;;;;;;;;21.64;74.95;97784.87;1596438;88;20259;-87
2021/07/27 00:24:16;;;;;;;;;;;;;;;21.65;75.04;97779.03;1622784;86;20200;-87
2021/07/27 00:26:44;;;;;;;;;;;;;;;21.62;75.14;97780.73;1620715;88;20185;-86
2021/07/27 00:29:10;;;;;;;;;;;;;;;21.63;75.23;97793.87;1629051;87;21835;-87
2021/07/27 00:31:36;;;;;;;;;;;;;;;21.60;75.32;97792.11;1628652;87;20299;-86
2021/07/27 00:34:02;;;;;;;;;;;;;;;21.58;75.41;97786.14;1628688;87;20310;-86
2021/07/27 00:36:30;;;;;;;;;;;;;;;21.61;75.46;97779.08;1618131;88;24388;-86
2021/07/27 00:38:56;;;;;;;;;;;;;;;21.66;75.53;97776.66;1616665;88;22068;-87
2021/07/27 00:41:22;;;;;;;;;;;;;;;21.64;75.60;97776.88;1627143;87;21051;-87
2021/07/27 00:43:48;;;;;;;;;;;;;;;21.64;75.69;97781.38;1617473;87;20409;-87
2021/07/27 00:46:14;;;;;;;;;;;;;;;21.67;75.77;97785.80;1618191;88;20790;-87
2021/07/27 00:48:40;;;;;;;;;;;;;;;21.70;75.84;97805.91;1627455;87;20222;-87
2021/07/27 00:51:06;;;;;;;;;;;;;;;21.67;75.91;97823.59;1596625;89;21941;-87
2021/07/27 00:53:34;;;;;;;;;;;;;;;21.64;75.98;97846.13;1633382;85;21075;-88
2021/07/27 00:56:00;;;;;;;;;;;;;;;21.61;76.08;97868.30;1642510;85;24667;-88
2021/07/27 00:58:26;;;;;;;;;;;;;;;21.52;76.15;97832.99;1653265;85;20553;-88
2021/07/27 01:00:53;;;;;;;;;;;;;;;21.36;76.25;97808.47;1644806;85;20738;-88
2021/07/27 01:03:19;;;;;;;;;;;;;;;21.23;76.36;97793.17;1663510;84;22158;-88
2021/07/27 01:05:45;;;;;;;;;;;;;;;21.13;76.50;97804.11;1663597;85;20999;-88
2021/07/27 01:08:14;;;;;;;;;;;;;;;21.21;76.64;97822.67;1662294;85;24511;-88
2021/07/27 01:10:42;;;;;;;;;;;;;;;21.21;76.77;97822.67;1663651;85;21444;-88
2021/07/27 01:13:08;;;;;;;;;;;;;;;21.16;76.91;97839.71;1667306;85;25172;-88
2021/07/27 01:15:35;;;;;;;;;;;;;;;21.15;77.01;97839.89;1651772;85;22024;-87
2021/07/27 01:18:06;;;;;;;;;;;;;;;21.20;77.12;97841.48;1663307;85;25477;-88
2021/07/27 01:39:42;;;;;;;;;;;;;;;21.44;78.07;97854.94;1617787;86;25465;-88
2021/07/27 01:42:34;;;;;;;;;;;;;;;21.52;78.16;97858.29;1656749;85;20725;-88
2021/07/27 01:45:06;;;;;;;;;;;;;;;21.68;78.22;97863.86;1654651;85;26831;-88
2021/07/27 01:47:38;;;;;;;;;;;;;;;21.74;78.25;97855.11;1643635;85;25093;-88
2021/07/27 01:50:05;;;;;;;;;;;;;;;21.76;78.29;97856.26;1649724;85;20324;-88
2021/07/27 01:52:31;;;;;;;;;;;;;;;21.85;78.28;97857.26;1648405;85;24867;-88
2021/07/27 01:54:57;;;;;;;;;;;;;;;21.79;78.32;97866.02;1650181;85;21997;-88
2021/07/27 01:57:25;;;;;;;;;;;;;;;21.73;78.34;97880.59;1649396;85;21075;-88
2021/07/27 01:59:54;;;;;;;;;;;;;;;21.66;78.37;97877.87;1645033;85;24635;-88
2021/07/27 02:02:20;;;;;;;;;;;;;;;21.60;78.42;97873.33;1651438;84;20256;-88
2021/07/27 02:04:55;;;;;;;;;;;;;;;21.49;78.49;97869.30;1642833;85;24728;-88
2021/07/27 02:07:21;;;;;;;;;;;;;;;21.47;78.52;97874.52;1683747;84;22070;-88
2021/07/27 02:09:50;;;;;;;;;;;;;;;21.54;78.61;97873.58;1682656;85;26002;-87
2021/07/27 02:12:18;;;;;;;;;;;;;;;21.65;78.67;97889.56;1683241;85;24474;-88
2021/07/27 02:15:07;;;;;;;;;;;;;;;21.70;78.70;97897.80;1664442;85;20294;-88
2021/07/27 02:17:30;;;;;;;;;;;;;;;21.77;78.76;97892.52;1659681;84;24822;-88
2021/07/27 02:19:58;;;;;;;;;;;;;;;21.70;78.76;97877.32;1623650;86;22093;-88
2021/07/27 02:22:25;;;;;;;;;;;;;;;21.59;78.81;97869.84;1642220;85;26859;-88
2021/07/27 02:24:51;;;;;;;;;;;;;;;21.51;78.88;97863.80;1649343;84;24490;-88
2021/07/27 02:27:17;;;;;;;;;;;;;;;21.46;78.93;97858.22;1654668;85;20305;-88
2021/07/27 02:29:45;;;;;;;;;;;;;;;21.53;78.97;97860.45;1652235;85;24748;-88
2021/07/27 02:32:11;;;;;;;;;;;;;;;21.57;79.02;97855.05;1652022;85;22738;-88
2021/07/27 02:34:37;;;;;;;;;;;;;;;21.57;79.06;97855.88;1649636;84;25965;-88
2021/07/27 02:37:03;;;;;;;;;;;;;;;21.57;79.11;97853.22;1657949;85;24415;-89
2021/07/27 02:39:31;;;;;;;;;;;;;;;21.53;79.13;97853.80;1649342;84;20245;-89
2021/07/27 02:41:58;;;;;;;;;;;;;;;21.48;79.19;97854.88;1659684;84;24853;-88
2021/07/27 02:44:24;;;;;;;;;;;;;;;21.47;79.22;97846.56;1640024;86;20328;-88
2021/07/27 02:46:51;;;;;;;;;;;;;;;21.44;79.26;97848.28;1662515;85;22072;-89
2021/07/27 02:49:17;;;;;;;;;;;;;;;21.44;79.29;97856.27;1663851;85;24493;-89
2021/07/27 02:51:50;;;;;;;;;;;;;;;21.48;79.35;97861.53;1667557;85;20743;-89
2021/07/27 02:54:16;;;;;;;;;;;;;;;21.49;79.41;97869.84;1663840;85;24859;-89
2021/07/27 02:56:43;;;;;;;;;;;;;;;21.48;79.44;97882.33;1663667;85;22033;-88
2021/07/27 02:59:09;;;;;;;;;;;;;;;21.49;79.46;97885.28;1663837;85;26022;-88
2021/07/27 03:01:35;;;;;;;;;;;;;;;21.54;79.50;97890.06;1666536;85;24560;-89
2021/07/27 03:04:01;;;;;;;;;;;;;;;21.61;79.52;97893.09;1666696;84;20993;-89
2021/07/27 03:06:28;;;;;;;;;;;;;;;21.64;79.54;97883.41;1660184;84;20271;-88
2021/07/27 03:11:23;;;;;;;;;;;;;;;21.65;79.58;97890.89;1664611;85;26774;-88
2021/07/27 03:13:49;;;;;;;;;;;;;;;21.64;79.61;97895.39;1665176;85;24639;-88
2021/07/27 03:16:22;;;;;;;;;;;;;;;21.65;79.62;97898.88;1665265;85;20279;-87
2021/07/27 03:18:56;;;;;;;;;;;;;;;21.56;79.64;97880.03;1660924;85;25009;-88
2021/07/27 03:21:21;;;;;;;;;;;;;;;21.40;79.67;97876.28;1661951;85;22069;-88
2021/07/27 03:23:47;;;;;;;;;;;;;;;21.36;79.65;97898.47;1666800;85;25960;-88
2021/07/27 03:26:14;;;;;;;;;;;;;;;21.43;79.73;97916.68;1680032;84;24591;-88
2021/07/27 03:28:43;;;;;;;;;;;;;;;21.50;79.76;97922.05;1660724;85;20228;-88
2021/07/27 03:31:09;;;;;;;;;;;;;;;21.53;79.81;97921.69;1627074;86;24812;-89
2021/07/27 03:33:35;;;;;;;;;;;;;;;21.43;79.85;97910.02;1627940;86;21954;-88
2021/07/27 03:36:02;;;;;;;;;;;;;;;21.31;79.89;97889.39;1681330;83;20982;-89
2021/07/27 03:38:28;;;;;;;;;;;;;;;21.23;79.92;97893.81;1659022;85;24293;-89
2021/07/27 03:40:56;;;;;;;;;;;;;;;21.20;79.99;97892.05;1628387;85;20238;-88
2021/07/27 03:43:30;;;;;;;;;;;;;;;21.16;80.07;97889.44;1638830;85;24922;-89
2021/07/27 03:46:02;;;;;;;;;;;;;;;21.14;80.15;97892.28;1645431;86;22010;-89
2021/07/27 03:48:29;;;;;;;;;;;;;;;21.12;80.20;97887.61;1642625;85;26102;-89
2021/07/27 03:50:55;;;;;;;;;;;;;;;21.19;80.27;97896.53;1618269;86;24534;-88
2021/07/27 03:53:22;;;;;;;;;;;;;;;21.30;80.36;97895.23;1639219;86;20298;-88
2021/07/27 03:55:55;;;;;;;;;;;;;;;21.38;80.41;97884.48;1630228;86;24240;-88
2021/07/27 03:58:21;;;;;;;;;;;;;;;21.40;80.44;97889.09;1646279;86;21954;-88
2021/07/27 04:00:47;;;;;;;;;;;;;;;21.40;80.47;97884.27;1644418;86;25968;-88
2021/07/27 04:03:15;;;;;;;;;;;;;;;21.39;80.53;97890.59;1610946;86;39576;-88
2021/07/27 04:05:43;;;;;;;;;;;;;;;21.34;80.55;97891.67;1633662;86;20232;-89
2021/07/27 04:08:09;;;;;;;;;;;;;;;21.27;80.58;97893.75;1646436;85;24833;-89
2021/07/27 04:10:43;;;;;;;;;;;;;;;21.22;80.63;97888.70;1638322;86;22330;-89
2021/07/27 04:13:09;;;;;;;;;;;;;;;21.19;80.68;97895.70;1639540;86;25952;-89
2021/07/27 04:15:37;;;;;;;;;;;;;;;21.28;80.72;97898.06;1632931;85;24563;-88
2021/07/27 04:18:07;;;;;;;;;;;;;;;21.33;80.75;97900.16;1629723;86;20348;-89
2021/07/27 04:20:35;;;;;;;;;;;;;;;21.37;80.78;97896.13;1639180;85;20513;-87
2021/07/27 04:23:07;;;;;;;;;;;;;;;21.36;80.79;97902.46;1642387;86;22010;-87
2021/07/27 04:25:31;;;;;;;;;;;;;;;21.41;80.82;97909.38;1634951;86;26019;-87
2021/07/27 04:28:07;;;;;;;;;;;;;;;21.45;80.84;97912.48;1647963;85;24509;-89
2021/07/27 04:30:37;;;;;;;;;;;;;;;21.42;80.86;97911.03;1621645;86;20539;-89
2021/07/27 04:33:03;;;;;;;;;;;;;;;21.39;80.86;97917.22;1636437;85;24629;-89
2021/07/27 04:35:29;;;;;;;;;;;;;;;21.34;80.92;97911.13;1672609;85;20308;-90
2021/07/27 04:37:57;;;;;;;;;;;;;;;21.40;80.97;97921.53;1635691;85;25986;-89
2021/07/27 04:40:29;;;;;;;;;;;;;;;21.45;81.02;97927.95;1643132;85;24446;-88
2021/07/27 04:42:56;;;;;;;;;;;;;;;21.49;81.05;97926.55;1661826;85;20493;-88
2021/07/27 04:45:22;;;;;;;;;;;;;;;21.54;81.07;97931.34;1669985;85;25445;-88
2021/07/27 04:47:48;;;;;;;;;;;;;;;21.52;81.11;97938.17;1661161;85;20309;-88
2021/07/27 04:50:14;;;;;;;;;;;;;;;21.53;81.12;97943.82;1639966;85;21385;-88
2021/07/27 04:52:59;;;;;;;;;;;;;;;21.52;81.17;97953.32;1663251;85;25255;-88
2021/07/27 04:55:25;;;;;;;;;;;;;;;21.48;81.19;97950.72;1680047;85;20531;-88
2021/07/27 04:57:51;;;;;;;;;;;;;;;21.43;81.22;97953.95;1641873;85;24304;-88
2021/07/27 05:00:27;;;;;;;;;;;;;;;21.28;81.20;97943.81;1634169;86;22141;-87
2021/07/27 05:02:57;;;;;;;;;;;;;;;21.25;81.24;97949.02;1710160;83;25412;-87
2021/07/27 05:05:28;;;;;;;;;;;;;;;21.25;81.28;97959.67;1654929;85;24724;-87
2021/07/27 05:07:57;;;;;;;;;;;;;;;21.25;81.33;97963.66;1628079;86;20587;-88
2021/07/27 05:10:23;;;;;;;;;;;;;;;21.21;81.36;97969.05;1631276;86;24815;-88
2021/07/27 05:12:49;;;;;;;;;;;;;;;21.23;81.40;97971.50;1680827;85;20809;-87
2021/07/27 05:15:15;;;;;;;;;;;;;;;21.21;81.44;97965.55;1641414;84;21048;-88
2021/07/27 05:17:58;;;;;;;;;;;;;;;21.20;81.47;97969.22;1709848;83;25203;-88
2021/07/27 05:20:24;;;;;;;;;;;;;;;21.13;81.50;97956.30;1681920;85;20291;-88
2021/07/27 05:22:52;;;;;;;;;;;;;;;21.09;81.54;97965.67;1661957;84;24882;-88
2021/07/27 05:25:24;;;;;;;;;;;;;;;21.11;81.59;97961.80;1627421;87;22194;-88
2021/07/27 05:27:51;;;;;;;;;;;;;;;21.13;81.60;97971.77;1682400;83;26750;-88
2021/07/27 05:30:17;;;;;;;;;;;;;;;21.21;81.65;97981.53;1640552;87;24395;-88
2021/07/27 05:32:43;;;;;;;;;;;;;;;21.26;81.68;97985.78;1683307;85;20217;-88
2021/07/27 05:35:10;;;;;;;;;;;;;;;21.22;81.71;97983.98;1658256;84;24759;-88
2021/07/27 05:37:37;;;;;;;;;;;;;;;21.29;81.73;97987.56;1683990;83;21933;-88
2021/07/27 05:40:04;;;;;;;;;;;;;;;21.28;81.77;97982.41;1681770;83;26013;-88
2021/07/27 05:42:31;;;;;;;;;;;;;;;21.19;81.78;97975.05;1681760;84;25065;-88
2021/07/27 05:44:58;;;;;;;;;;;;;;;21.09;81.76;97975.81;1676027;84;20193;-89
2021/07/27 05:47:24;;;;;;;;;;;;;;;21.19;81.81;97993.67;1704411;83;24623;-90
2021/07/27 05:49:52;;;;;;;;;;;;;;;21.33;81.86;98004.51;1628617;86;20715;-89
2021/07/27 05:52:18;;;;;;;;;;;;;;;21.44;81.90;98005.37;1679017;84;26250;-89
2021/07/27 05:54:45;;;;;;;;;;;;;;;21.55;81.95;98004.86;1647742;85;24518;-89
2021/07/27 05:57:19;;;;;;;;;;;;;;;21.63;82.00;98006.09;1630915;85;20551;-89
2021/07/27 05:59:44;;;;;;;;;;;;;;;21.65;82.00;98004.91;1662491;85;24869;-88
2021/07/27 06:02:16;;;;;;;;;;;;;;;21.66;82.00;98007.05;1666434;85;20798;-88
2021/07/27 06:04:38;;;;;;;;;;;;;;;21.63;82.02;98010.09;1648281;85;26030;-89
2021/07/27 06:07:04;;;;;;;;;;;;;;;21.65;82.00;98017.40;1667928;84;20961;-88
2021/07/27 06:09:30;;;;;;;;;;;;;;;21.67;81.98;98016.69;1677387;83;20217;-89
2021/07/27 06:11:56;;;;;;;;;;;;;;;21.62;81.96;98017.25;1654046;85;24745;-89
2021/07/27 06:14:23;;;;;;;;;;;;;;;21.61;81.90;98024.92;1627801;86;20261;-90
2021/07/27 06:16:49;;;;;;;;;;;;;;;21.60;81.90;98019.80;1677468;84;26156;-89
2021/07/27 06:19:15;;;;;;;;;;;;;;;21.59;81.91;98015.48;1654150;85;24477;-89
2021/07/27 06:21:41;;;;;;;;;;;;;;;21.59;81.92;98019.48;1657919;85;20804;-89
2021/07/27 06:24:08;;;;;;;;;;;;;;;21.65;81.93;98024.06;1639689;85;24837;-89
2021/07/27 06:26:36;;;;;;;;;;;;;;;21.64;81.96;98017.08;1666061;85;21979;-88
2021/07/27 06:29:03;;;;;;;;;;;;;;;21.61;81.96;98020.09;1665450;85;27056;-89
2021/07/27 06:31:30;;;;;;;;;;;;;;;21.63;81.96;98019.41;1668767;85;24526;-89
2021/07/27 06:33:56;;;;;;;;;;;;;;;21.61;81.98;98014.77;1664119;84;20626;-89
2021/07/27 06:36:22;;;;;;;;;;;;;;;21.60;82.00;98013.14;1663289;84;24813;-89
2021/07/27 06:38:49;;;;;;;;;;;;;;;21.57;81.98;98014.83;1665079;84;21989;-88
2021/07/27 06:41:15;;;;;;;;;;;;;;;21.57;82.02;98025.48;1664170;85;26231;-87
2021/07/27 06:43:42;;;;;;;;;;;;;;;21.60;82.00;98035.25;1660401;84;20881;-89
2021/07/27 06:46:11;;;;;;;;;;;;;;;21.63;82.03;98038.89;1661348;84;20259;-89
2021/07/27 06:48:38;;;;;;;;;;;;;;;21.69;82.02;98047.97;1659074;84;24828;-89
2021/07/27 06:51:08;;;;;;;;;;;;;;;21.72;82.01;98052.91;1663594;84;21992;-89
2021/07/27 06:53:38;;;;;;;;;;;;;;;21.75;82.04;98057.87;1657231;84;26054;-88
2021/07/27 06:56:08;;;;;;;;;;;;;;;21.80;82.06;98067.97;1660759;84;24657;-89
2021/07/27 06:58:34;;;;;;;;;;;;;;;21.84;82.10;98078.06;1659847;84;20420;-89
2021/07/27 07:01:01;;;;;;;;;;;;;;;21.86;82.09;98073.89;1670324;84;24997;-89
2021/07/27 07:03:27;;;;;;;;;;;;;;;21.87;82.12;98064.38;1660243;84;22067;-89
2021/07/27 07:05:53;;;;;;;;;;;;;;;21.93;82.15;98075.59;1666318;84;26181;-90
2021/07/27 07:08:19;;;;;;;;;;;;;;;21.97;82.16;98072.93;1663914;84;20251;-89
2021/07/27 07:10:45;;;;;;;;;;;;;;;22.00;82.19;98076.54;1657268;84;20316;-89
2021/07/27 07:13:10;;;;;;;;;;;;;;;22.05;82.21;98075.47;1652623;84;24800;-90
2021/07/27 07:15:36;;;;;;;;;;;;;;;22.06;82.23;98066.47;1658786;84;20278;-90
2021/07/27 07:18:03;;;;;;;;;;;;;;;22.17;82.25;98066.98;1656448;84;21106;-89
2021/07/27 07:20:29;;;;;;;;;;;;;;;22.25;82.26;98058.37;1660160;84;24467;-89
2021/07/27 07:22:55;;;;;;;;;;;;;;;22.26;82.31;98053.83;1660575;84;20254;-89
2021/07/27 07:25:21;;;;;;;;;;;;;;;22.28;82.33;98052.64;1659238;84;24807;-89
2021/07/27 07:27:47;;;;;;;;;;;;;;;22.35;82.38;98048.71;1652783;84;21933;-89
2021/07/27 07:30:14;;;;;;;;;;;;;;;22.33;82.42;98039.56;1662220;84;25959;-89
2021/07/27 07:32:45;;;;;;;;;;;;;;;22.36;82.43;98040.53;1657875;84;24669;-89
2021/07/27 07:35:08;;;;;;;;;;;;;;;22.47;82.43;98039.19;1674712;83;20184;-89
2021/07/27 07:37:34;;;;;;;;;;;;;;;22.57;82.47;98041.02;1661628;85;25583;-89
2021/07/27 07:40:00;;;;;;;;;;;;;;;22.61;82.50;98042.27;1660529;85;20329;-89
2021/07/27 07:42:26;;;;;;;;;;;;;;;22.69;82.48;98054.16;1662564;85;26082;-89
2021/07/27 07:44:52;;;;;;;;;;;;;;;22.75;82.46;98058.72;1666746;84;24422;-89
2021/07/27 07:47:18;;;;;;;;;;;;;;;22.81;82.46;98065.95;1632291;86;20244;-89
2021/07/27 07:49:44;;;;;;;;;;;;;;;22.83;82.42;98063.94;1660782;84;20288;-89
2021/07/27 07:52:11;;;;;;;;;;;;;;;22.87;82.36;98069.19;1665606;85;22065;-89
2021/07/27 07:54:38;;;;;;;;;;;;;;;22.90;82.35;98069.33;1669005;84;26055;-89
2021/07/27 07:57:04;;;;;;;;;;;;;;;22.89;82.30;98077.84;1662113;84;24528;-89
2021/07/27 07:59:30;;;;;;;;;;;;;;;22.91;82.28;98076.32;1673521;84;20325;-89
2021/07/27 08:01:59;;;;;;;;;;;;;;;23.02;82.31;98087.77;1667959;84;21458;-89
2021/07/27 08:04:25;;;;;;;;;;;;;;;23.09;82.33;98100.66;1665092;84;22715;-89
2021/07/27 08:06:51;;;;;;;;;;;;;;;23.12;82.34;98096.80;1667530;84;26088;-89
2021/07/27 08:09:17;;;;;;;;;;;;;;;23.14;82.36;98089.39;1666421;85;24447;-89
2021/07/27 08:11:43;;;;;;;;;;;;;;;23.14;82.36;98089.39;1631397;87;20550;-88
2021/07/27 08:14:11;;;;;;;;;;;;;;;23.18;82.39;98085.34;1633206;86;24547;-88
2021/07/27 08:16:37;;;;;;;;;;;;;;;23.27;82.44;98094.33;1662365;85;21944;-88
2021/07/27 08:19:07;;;;;;;;;;;;;;;23.34;82.50;98094.38;1659450;85;26176;-88
2021/07/27 08:21:33;;;;;;;;;;;;;;;23.43;82.55;98091.02;1661185;85;24433;-88
2021/07/27 08:23:59;;;;;;;;;;;;;;;23.52;82.56;98093.36;1659963;85;20706;-88
2021/07/27 08:26:27;;;;;;;;;;;;;;;23.59;82.58;98096.91;1662038;86;24801;-88
2021/07/27 08:28:53;;;;;;;;;;;;;;;23.64;82.60;98094.46;1661540;86;22840;-88
2021/07/27 08:31:19;;;;;;;;;;;;;;;23.69;82.62;98097.88;1661466;84;21820;-88
2021/07/27 08:33:46;;;;;;;;;;;;;;;23.80;82.66;98103.16;1660266;86;24388;-88
2021/07/27 08:36:12;;;;;;;;;;;;;;;23.84;82.66;98103.09;1662689;85;20664;-88
2021/07/27 08:38:38;;;;;;;;;;;;;;;23.90;82.60;98107.62;1665259;84;24780;-88
2021/07/27 08:41:06;;;;;;;;;;;;;;;23.92;82.53;98105.58;1691622;83;22228;-87
2021/07/27 08:43:33;;;;;;;;;;;;;;;23.95;82.46;98106.50;1672621;83;26011;-87
2021/07/27 08:45:59;;;;;;;;;;;;;;;24.01;82.42;98097.69;1629703;86;24853;-88
2021/07/27 08:48:25;;;;;;;;;;;;;;;24.07;82.41;98104.41;1658962;85;20327;-88
2021/07/27 08:50:52;;;;;;;;;;;;;;;24.15;82.37;98108.76;1656967;85;24819;-89
2021/07/27 08:53:18;;;;;;;;;;;;;;;24.19;82.32;98106.02;1674827;85;22041;-88
2021/07/27 08:55:44;;;;;;;;;;;;;;;24.23;82.28;98111.27;1628552;87;25920;-88
2021/07/27 08:58:10;;;;;;;;;;;;;;;24.31;82.26;98120.46;1630168;86;24393;-87
2021/07/27 09:00:36;;;;;;;;;;;;;;;24.38;82.25;98122.65;1703818;83;20303;-88
2021/07/27 09:03:09;;;;;;;;;;;;;;;24.42;82.21;98121.20;1627916;87;24793;-87
2021/07/27 09:05:36;;;;;;;;;;;;;;;24.48;82.05;98128.43;1677642;85;21959;-88
2021/07/27 09:08:07;;;;;;;;;;;;;;;24.48;81.88;98127.09;1655704;84;25414;-87
2021/07/27 09:10:38;;;;;;;;;;;;;;;24.49;81.75;98120.69;1674721;85;25426;-87
2021/07/27 09:13:08;;;;;;;;;;;;;;;24.56;81.71;98126.89;1676649;85;20197;-87
2021/07/27 09:15:44;;;;;;;;;;;;;;;24.53;81.55;98124.63;1657089;84;25592;-88
2021/07/27 09:18:11;;;;;;;;;;;;;;;24.50;81.38;98121.00;1628385;87;22074;-87
2021/07/27 09:20:45;;;;;;;;;;;;;;;24.64;81.34;98122.38;1675141;85;26752;-86
2021/07/27 09:23:18;;;;;;;;;;;;;;;24.76;81.30;98119.41;1675678;84;24538;-87
2021/07/27 09:25:45;;;;;;;;;;;;;;;24.89;81.23;98116.25;1675329;84;20610;-87
2021/07/27 09:28:11;;;;;;;;;;;;;;;24.95;81.15;98118.11;1678644;83;24816;-87
2021/07/27 09:30:38;;;;;;;;;;;;;;;24.99;81.05;98129.22;1673690;84;22008;-87
2021/07/27 09:33:05;;;;;;;;;;;;;;;25.11;80.99;98136.95;1674292;85;26098;-87
2021/07/27 09:35:32;;;;;;;;;;;;;;;25.20;80.87;98137.58;1675588;83;24983;-87
2021/07/27 09:38:05;;;;;;;;;;;;;;;25.22;80.64;98136.84;1675327;84;20278;-86
2021/07/27 09:40:31;;;;;;;;;;;;;;;25.23;80.42;98137.98;1675482;85;24700;-87
2021/07/27 09:42:57;;;;;;;;;;;;;;;25.32;80.25;98138.58;1669006;85;22268;-86
2021/07/27 09:45:26;;;;;;;;;;;;;;;25.41;80.12;98137.34;1635801;85;26990;-87
2021/07/27 09:47:54;;;;;;;;;;;;;;;25.49;79.86;98137.62;1636832;84;24563;-86
2021/07/27 09:50:22;;;;;;;;;;;;;;;25.53;79.67;98128.95;1635747;85;20217;-87
2021/07/27 09:52:48;;;;;;;;;;;;;;;25.59;79.44;98133.51;1646829;85;24807;-87
2021/07/27 09:55:14;;;;;;;;;;;;;;;25.62;79.14;98129.09;1647978;85;20751;-87
2021/07/27 09:57:40;;;;;;;;;;;;;;;25.60;78.81;98120.42;1644007;85;26044;-87
2021/07/27 10:00:07;;;;;;;;;;;;;;;25.62;78.53;98126.41;1646285;85;24707;-87
2021/07/27 10:02:34;;;;;;;;;;;;;;;25.58;78.20;98126.53;1645334;84;20216;-87
2021/07/27 10:05:01;;;;;;;;;;;;;;;25.58;77.97;98127.86;1609073;86;24757;-87
2021/07/27 10:07:29;;;;;;;;;;;;;;;25.69;77.85;98125.05;1663646;85;22476;-87
2021/07/27 10:10:08;;;;;;;;;;;;;;;25.86;77.72;98126.76;1667523;85;26009;-87
2021/07/27 10:12:38;;;;;;;;;;;;;;;25.96;77.46;98129.30;1664266;85;24455;-87
2021/07/27 10:15:11;;;;;;;;;;;;;;;26.09;77.17;98127.05;1678378;85;20273;-87
2021/07/27 10:17:50;;;;;;;;;;;;;;;26.16;76.94;98134.05;1664501;84;24726;-87
2021/07/27 10:20:26;;;;;;;;;;;;;;;26.18;76.65;98136.52;1669406;85;22018;-87
2021/07/27 10:22:52;;;;;;;;;;;;;;;26.17;76.37;98134.36;1666843;85;25609;-87
2021/07/27 10:25:18;;;;;;;;;;;;;;;26.20;76.18;98133.92;1668265;85;24473;-87
2021/07/27 10:27:46;;;;;;;;;;;;;;;26.26;75.97;98122.05;1672816;84;20214;-87
2021/07/27 10:30:12;;;;;;;;;;;;;;;26.33;75.79;98113.46;1668456;85;25481;-87
2021/07/27 10:32:40;;;;;;;;;;;;;;;26.35;75.58;98109.50;1663702;84;22175;-87
2021/07/27 10:35:25;;;;;;;;;;;;;;;26.43;75.38;98111.95;1666230;85;25971;-87
2021/07/27 10:37:51;;;;;;;;;;;;;;;26.50;75.13;98112.74;1667979;84;24434;-87
2021/07/27 10:40:19;;;;;;;;;;;;;;;26.56;74.78;98115.08;1666871;84;20593;-87
2021/07/27 10:42:45;;;;;;;;;;;;;;;26.58;74.50;98113.81;1666825;85;24747;-87
2021/07/27 10:45:18;;;;;;;;;;;;;;;26.63;74.23;98113.16;1659207;85;21807;-87
2021/07/27 10:47:51;;;;;;;;;;;;;;;26.72;73.97;98115.90;1657934;84;26083;-87
2021/07/27 10:50:17;;;;;;;;;;;;;;;26.83;73.82;98117.88;1663883;86;24509;-87
2021/07/27 10:52:44;;;;;;;;;;;;;;;26.93;73.64;98116.08;1658959;86;20485;-87
2021/07/27 10:55:12;;;;;;;;;;;;;;;26.94;73.29;98117.73;1659962;86;24822;-87
2021/07/27 10:57:39;;;;;;;;;;;;;;;27.00;73.06;98119.54;1662368;85;22067;-87
2021/07/27 11:00:06;;;;;;;;;;;;;;;27.09;72.87;98122.24;1666409;85;26712;-87
2021/07/27 11:02:32;;;;;;;;;;;;;;;27.18;72.60;98122.26;1661371;85;24023;-87
2021/07/27 11:04:58;;;;;;;;;;;;;;;27.27;72.45;98112.89;1656969;86;20265;-86
2021/07/27 11:07:26;;;;;;;;;;;;;;;27.36;72.25;98116.10;1656403;85;24654;-87
2021/07/27 11:09:56;;;;;;;;;;;;;;;27.42;72.04;98120.08;1662754;84;22128;-87
2021/07/27 11:12:32;;;;;;;;;;;;;;;27.47;71.81;98113.51;1660209;85;26823;-87
2021/07/27 11:15:12;;;;;;;;;;;;;;;27.57;71.48;98120.26;1659782;85;24402;-87
2021/07/27 11:17:40;;;;;;;;;;;;;;;27.61;71.07;98126.30;1655849;84;20223;-87
2021/07/27 11:20:07;;;;;;;;;;;;;;;27.73;70.92;98121.02;1658618;86;24769;-87
2021/07/27 11:22:33;;;;;;;;;;;;;;;27.78;70.67;98118.47;1634650;86;21831;-87
2021/07/27 11:24:59;;;;;;;;;;;;;;;27.78;70.40;98122.50;1661254;85;20946;-87
2021/07/27 11:27:32;;;;;;;;;;;;;;;27.79;70.12;98108.84;1669603;85;24472;-87
2021/07/27 11:29:59;;;;;;;;;;;;;;;27.83;69.80;98103.83;1670030;85;20209;-87
2021/07/27 11:32:26;;;;;;;;;;;;;;;27.82;69.42;98102.20;1669835;85;25484;-87
2021/07/27 11:34:57;;;;;;;;;;;;;;;27.83;69.11;98095.75;1673007;85;22001;-87
2021/07/27 11:37:24;;;;;;;;;;;;;;;27.84;68.72;98096.88;1660330;84;26087;-87
2021/07/27 11:39:50;;;;;;;;;;;;;;;27.89;68.41;98097.03;1684736;84;24493;-87
2021/07/27 11:42:18;;;;;;;;;;;;;;;27.97;68.18;98092.39;1665996;85;20750;-87
2021/07/27 11:44:46;;;;;;;;;;;;;;;28.04;67.95;98083.72;1679147;84;25617;-87
2021/07/27 11:47:12;;;;;;;;;;;;;;;28.11;67.72;98086.61;1679817;84;22081;-87
2021/07/27 11:49:38;;;;;;;;;;;;;;;28.18;67.52;98097.32;1633884;85;21122;-88
2021/07/27 11:52:05;;;;;;;;;;;;;;;28.20;67.25;98098.72;1677196;83;20929;-87
2021/07/27 11:54:31;;;;;;;;;;;;;;;28.26;67.05;98093.77;1657132;85;20218;-87
2021/07/27 11:56:58;;;;;;;;;;;;;;;28.33;66.85;98095.03;1655838;85;20815;-87
2021/07/27 11:59:25;;;;;;;;;;;;;;;28.39;66.63;98097.34;1665662;84;22025;-87
2021/07/27 12:01:51;;;;;;;;;;;;;;;28.31;66.30;98096.33;1661337;85;26132;-87
2021/07/27 12:04:19;;;;;;;;;;;;;;;28.25;66.05;98097.54;1665699;84;24468;-87
2021/07/27 12:06:47;;;;;;;;;;;;;;;28.13;65.72;98090.45;1664454;84;20313;-87
2021/07/27 12:09:13;;;;;;;;;;;;;;;28.11;65.54;98084.44;1656998;85;24852;-87
2021/07/27 12:11:39;;;;;;;;;;;;;;;28.18;65.35;98083.34;1663521;84;22094;-88
2021/07/27 12:14:05;;;;;;;;;;;;;;;28.25;65.18;98072.49;1665758;84;26036;-87
2021/07/27 12:16:31;;;;;;;;;;;;;;;28.36;65.12;98067.67;1658326;85;20304;-87
2021/07/27 12:18:57;;;;;;;;;;;;;;;28.42;64.92;98061.34;1662112;85;20223;-87
2021/07/27 12:21:23;;;;;;;;;;;;;;;28.41;64.62;98059.73;1664236;84;24947;-87
2021/07/27 12:23:52;;;;;;;;;;;;;;;28.36;64.23;98047.48;1670756;84;22030;-87
2021/07/27 12:26:18;;;;;;;;;;;;;;;28.48;64.19;98042.92;1668426;84;26056;-87
2021/07/27 12:28:44;;;;;;;;;;;;;;;28.54;63.99;98044.70;1661468;84;20257;-87
2021/07/27 12:31:10;;;;;;;;;;;;;;;28.64;63.78;98047.64;1659159;84;20466;-87
2021/07/27 12:33:37;;;;;;;;;;;;;;;28.70;63.54;98048.59;1656213;84;25737;-87
2021/07/27 12:36:04;;;;;;;;;;;;;;;28.75;63.33;98043.91;1665635;84;22159;-87
2021/07/27 12:38:30;;;;;;;;;;;;;;;28.81;63.12;98048.34;1663392;84;26085;-87
2021/07/27 12:41:02;;;;;;;;;;;;;;;28.85;62.97;98038.76;1667621;84;24427;-87
2021/07/27 12:43:28;;;;;;;;;;;;;;;28.86;62.79;98038.50;1670420;84;20208;-87
2021/07/27 12:45:56;;;;;;;;;;;;;;;28.93;62.68;98023.05;1639555;85;24804;-87
2021/07/27 12:48:23;;;;;;;;;;;;;;;29.03;62.59;98026.50;1640547;84;22755;-87
2021/07/27 12:50:48;;;;;;;;;;;;;;;29.09;62.47;98027.73;1650959;85;26205;-88
2021/07/27 12:53:15;;;;;;;;;;;;;;;29.12;62.29;98027.81;1641344;84;24495;-87
2021/07/27 12:55:44;;;;;;;;;;;;;;;29.13;62.13;98027.55;1647529;84;20275;-87
2021/07/27 12:58:10;;;;;;;;;;;;;;;29.18;61.88;98030.91;1632632;85;24762;-87
2021/07/27 13:00:36;;;;;;;;;;;;;;;29.24;61.72;98023.20;1648442;85;20381;-87
2021/07/27 13:03:02;;;;;;;;;;;;;;;29.28;61.56;98032.48;1657765;85;25970;-87
2021/07/27 13:05:28;;;;;;;;;;;;;;;29.30;61.24;98034.92;1646590;85;20351;-87
2021/07/27 13:07:54;;;;;;;;;;;;;;;29.33;61.05;98037.19;1605963;86;20853;-87
2021/07/27 13:10:21;;;;;;;;;;;;;;;29.39;61.00;98033.55;1636969;85;24236;-87
2021/07/27 13:12:47;;;;;;;;;;;;;;;29.42;60.76;98034.41;1600224;87;22026;-87